Terminal Aerodrome Forecast
Issued by NWS La Crosse, WI

Home | Current Version | Previous Version | Text Only | Print | Product List | Glossary On
Versions: 1 2 3 4 5 6 7 8 9 10 11 12 13 14 15 16 17 18 19 20 21 22 23 24 25
000
FTUS43 KARX 240522
TAFRST
TAF
KRST 240522Z 2406/2506 14006KT P6SM SCT070 BKN140
     FM241000 15005KT P6SM BKN060
     FM241500 14012KT P6SM -SHRA BKN025
     FM241900 12013KT P6SM VCSH BKN040
     FM242100 11011KT 4SM -SHRA BR OVC017
     FM250000 09008KT 3SM -RA BR OVC008=

USA.gov is the U.S. government's official web portal to all federal, state and local government web resources and services.